createdAt,value
2018-08-09T00:00:19.046Z,35.39
2018-08-09T00:01:19.014Z,36.64
2018-08-09T00:02:18.985Z,37.12
2018-08-09T00:03:18.957Z,36.54
2018-08-09T00:04:18.922Z,36.85
2018-08-09T00:05:18.889Z,37.04
2018-08-09T00:06:18.853Z,34.91
2018-08-09T00:07:18.820Z,32.98
2018-08-09T00:08:18.814Z,32.12
2018-08-09T00:09:18.760Z,31.45
2018-08-09T00:10:18.723Z,31.45
2018-08-09T00:11:18.693Z,33.95
2018-08-09T00:12:18.660Z,35.30
2018-08-09T00:13:18.632Z,33.85
2018-08-09T00:14:18.601Z,33.95
2018-08-09T00:15:18.569Z,34.05
2018-08-09T00:16:18.538Z,33.18
2018-08-09T00:17:18.504Z,32.51
2018-08-09T00:18:18.468Z,32.21
2018-08-09T00:19:18.454Z,31.74
2018-08-09T00:20:18.404Z,31.54
2018-08-09T00:21:18.373Z,32.21
2018-08-09T00:22:18.343Z,33.18
2018-08-09T00:23:18.315Z,31.83
2018-08-09T00:24:18.275Z,31.64
2018-08-09T00:25:18.253Z,31.26
2018-08-09T00:26:18.217Z,32.12
2018-08-09T00:27:18.186Z,33.95
2018-08-09T00:28:18.153Z,35.20
2018-08-09T00:29:18.123Z,36.45
2018-08-09T00:30:18.086Z,34.62
2018-08-09T00:31:18.055Z,33.75
2018-08-09T00:32:18.017Z,32.51
2018-08-09T00:33:17.988Z,32.31
2018-08-09T00:34:17.957Z,31.93
2018-08-09T00:35:17.927Z,31.45
2018-08-09T00:36:17.896Z,31.54
2018-08-09T00:37:17.860Z,31.35
2018-08-09T00:38:17.826Z,30.49
2018-08-09T00:39:17.846Z,29.43
2018-08-09T00:40:17.767Z,30.10
2018-08-09T00:41:17.731Z,30.29
2018-08-09T00:42:17.703Z,28.56
2018-08-09T00:43:17.663Z,27.97
2018-08-09T00:44:17.630Z,28.64
2018-08-09T00:45:17.600Z,28.74
2018-08-09T00:46:17.572Z,28.93
2018-08-09T00:47:17.540Z,27.69
2018-08-09T00:48:17.508Z,27.11
2018-08-09T00:49:17.477Z,26.82
2018-08-09T00:50:17.439Z,25.95
2018-08-09T00:51:17.405Z,25.47
2018-08-09T00:52:17.375Z,26.15
2018-08-09T00:53:17.345Z,26.43
2018-08-09T00:54:17.313Z,26.53
2018-08-09T00:55:17.289Z,26.92
2018-08-09T00:56:17.244Z,27.49
2018-08-09T00:57:17.215Z,27.30
2018-08-09T00:58:17.183Z,27.11
2018-08-09T00:59:17.159Z,27.49
2018-08-09T01:00:17.120Z,27.78
2018-08-09T01:01:17.086Z,28.84
2018-08-09T01:02:17.059Z,29.13
2018-08-09T01:03:17.017Z,29.99
2018-08-09T01:04:16.990Z,31.24
2018-08-09T01:05:16.959Z,31.05
2018-08-09T01:06:16.920Z,31.15
2018-08-09T01:07:16.891Z,30.18
2018-08-09T01:08:16.859Z,29.41
2018-08-09T01:09:16.823Z,29.03
2018-08-09T01:10:16.797Z,29.70
2018-08-09T01:11:16.762Z,29.51
2018-08-09T01:12:16.729Z,29.03
2018-08-09T01:13:16.696Z,26.92
2018-08-09T01:14:16.667Z,26.15
2018-08-09T01:15:16.667Z,24.70
2018-08-09T01:16:16.621Z,24.13
2018-08-09T01:17:16.573Z,25.36
2018-08-09T01:18:16.534Z,25.38
2018-08-09T01:19:16.509Z,26.24
2018-08-09T01:20:16.471Z,27.39
2018-08-09T01:21:16.438Z,27.38
2018-08-09T01:22:16.409Z,28.34
2018-08-09T01:23:16.389Z,26.24
2018-08-09T01:24:16.345Z,26.72
2018-08-09T01:25:16.312Z,27.69
2018-08-09T01:26:16.273Z,28.74
2018-08-09T01:27:16.250Z,28.74
2018-08-09T01:28:16.219Z,28.26
2018-08-09T01:29:16.184Z,27.39
2018-08-09T01:30:16.143Z,28.55
2018-08-09T01:31:16.120Z,29.03
2018-08-09T01:32:16.083Z,29.03
2018-08-09T01:33:16.049Z,28.84
2018-08-09T01:34:16.029Z,28.64
2018-08-09T01:35:15.985Z,28.45
2018-08-09T01:36:15.953Z,28.45
2018-08-09T01:37:15.922Z,28.55
2018-08-09T01:38:15.885Z,28.55
2018-08-09T01:39:15.851Z,28.74
2018-08-09T01:40:15.821Z,28.26
2018-08-09T01:41:15.786Z,27.01
2018-08-09T01:42:15.759Z,26.43
2018-08-09T01:43:15.724Z,26.43
2018-08-09T01:44:15.691Z,26.05
2018-08-09T01:45:15.656Z,24.70
2018-08-09T01:46:15.629Z,24.51
2018-08-09T01:47:15.597Z,26.15
2018-08-09T01:48:15.563Z,26.43
2018-08-09T01:49:15.531Z,26.15
2018-08-09T01:50:15.494Z,23.55
2018-08-09T01:51:15.468Z,22.49
2018-08-09T01:52:15.429Z,22.49
2018-08-09T01:53:15.395Z,23.07
2018-08-09T01:54:15.376Z,25.09
2018-08-09T01:55:15.334Z,25.38
2018-08-09T01:56:15.304Z,25.57
2018-08-09T01:57:15.273Z,24.51
2018-08-09T01:58:15.232Z,22.59
2018-08-09T01:59:15.206Z,19.61
2018-08-09T02:00:15.172Z,18.35
2018-08-09T02:01:15.141Z,17.10
2018-08-09T02:02:15.105Z,15.47
2018-08-09T02:03:15.071Z,13.06
2018-08-09T02:04:15.041Z,11.62
2018-08-09T02:05:15.023Z,9.70
2018-08-09T02:06:14.995Z,8.36
2018-08-09T02:07:14.946Z,8.55
2018-08-09T02:08:14.911Z,7.39
2018-08-09T02:09:14.882Z,7.29
2018-08-09T02:10:14.842Z,6.82
2018-08-09T02:11:14.811Z,7.20
2018-08-09T02:12:14.780Z,7.97
2018-08-09T02:13:14.744Z,7.29
2018-08-09T02:14:14.717Z,7.20
2018-08-09T02:15:14.686Z,7.39
2018-08-09T02:16:14.649Z,7.97
2018-08-09T02:17:14.615Z,8.54
2018-08-09T02:18:14.594Z,7.01
2018-08-09T02:19:14.552Z,7.29
2018-08-09T02:20:14.521Z,7.78
2018-08-09T02:21:14.490Z,8.45
2018-08-09T02:22:14.452Z,8.74
2018-08-09T02:23:14.422Z,9.03
2018-08-09T02:24:14.392Z,9.41
2018-08-09T02:25:14.363Z,10.08
2018-08-09T02:26:14.325Z,10.08
2018-08-09T02:27:14.292Z,10.08
2018-08-09T02:28:14.260Z,9.41
2018-08-09T02:29:14.234Z,9.12
2018-08-09T02:30:14.196Z,10.08
2018-08-09T02:31:14.160Z,10.94
2018-08-09T02:32:14.129Z,10.94
2018-08-09T02:33:14.099Z,11.23
2018-08-09T02:34:14.060Z,11.04
2018-08-09T02:35:14.034Z,11.81
2018-08-09T02:36:13.998Z,13.45
2018-08-09T02:37:13.961Z,14.41
2018-08-09T02:38:13.935Z,14.41
2018-08-09T02:39:13.901Z,14.22
2018-08-09T02:40:13.871Z,14.70
2018-08-09T02:41:13.839Z,15.08
2018-08-09T02:42:13.800Z,15.18
2018-08-09T02:43:13.768Z,15.37
2018-08-09T02:44:13.746Z,15.28
2018-08-09T02:45:13.702Z,15.18
2018-08-09T02:46:13.675Z,15.66
2018-08-09T02:47:13.639Z,15.75
2018-08-09T02:48:13.608Z,15.85
2018-08-09T02:49:13.576Z,15.66
2018-08-09T02:50:13.545Z,15.85
2018-08-09T02:51:13.508Z,15.66
2018-08-09T02:52:13.478Z,15.85
2018-08-09T02:53:13.446Z,15.37
2018-08-09T02:54:13.414Z,15.95
2018-08-09T02:55:13.374Z,16.42
2018-08-09T02:56:13.345Z,17.29
2018-08-09T02:57:13.337Z,16.91
2018-08-09T02:58:13.283Z,17.10
2018-08-09T02:59:13.248Z,17.87
2018-08-09T03:00:13.215Z,18.06
2018-08-09T03:01:13.187Z,18.54
2018-08-09T03:02:13.146Z,19.21
2018-08-09T03:03:13.114Z,19.50
2018-08-09T03:04:13.086Z,18.16
2018-08-09T03:05:13.056Z,19.02
2018-08-09T03:06:13.019Z,20.47
2018-08-09T03:07:12.983Z,19.60
2018-08-09T03:08:12.950Z,19.89
2018-08-09T03:09:12.916Z,19.60
2018-08-09T03:10:12.889Z,20.75
2018-08-09T03:11:12.854Z,20.37
2018-08-09T03:12:12.822Z,20.47
2018-08-09T03:13:12.792Z,20.47
2018-08-09T03:14:12.755Z,21.23
2018-08-09T03:15:12.735Z,20.75
2018-08-09T03:16:12.690Z,19.50
2018-08-09T03:17:12.671Z,21.04
2018-08-09T03:18:12.627Z,21.14
2018-08-09T03:19:12.593Z,20.85
2018-08-09T03:20:12.558Z,20.27
2018-08-09T03:21:12.534Z,19.50
2018-08-09T03:22:12.494Z,19.21
2018-08-09T03:23:12.463Z,19.12
2018-08-09T03:24:12.472Z,19.40
2018-08-09T03:25:12.400Z,20.17
2018-08-09T03:26:12.360Z,20.86
2018-08-09T03:27:12.332Z,21.04
2018-08-09T03:28:12.296Z,21.72
2018-08-09T03:29:12.264Z,21.61
2018-08-09T03:30:12.236Z,21.62
2018-08-09T03:31:12.208Z,22.11
2018-08-09T03:32:12.168Z,22.20
2018-08-09T03:33:12.139Z,21.72
2018-08-09T03:34:12.098Z,21.53
2018-08-09T03:35:12.068Z,21.53
2018-08-09T03:36:12.037Z,20.86
2018-08-09T03:37:12.007Z,22.20
2018-08-09T03:38:11.973Z,22.49
2018-08-09T03:39:11.937Z,22.59
2018-08-09T03:40:11.904Z,22.49
2018-08-09T03:41:11.872Z,22.78
2018-08-09T03:42:11.915Z,23.26
2018-08-09T03:43:11.809Z,23.84
2018-08-09T03:44:11.776Z,24.61
2018-08-09T03:45:11.750Z,24.51
2018-08-09T03:46:11.707Z,24.22
2018-08-09T03:47:11.686Z,25.09
2018-08-09T03:48:11.644Z,24.70
2018-08-09T03:49:11.610Z,25.28
2018-08-09T03:50:11.584Z,25.57
2018-08-09T03:51:11.548Z,25.28
2018-08-09T03:52:11.514Z,25.28
2018-08-09T03:53:11.481Z,25.38
2018-08-09T03:54:11.452Z,23.46
2018-08-09T04:07:04.029Z,15.95
2018-08-09T04:08:03.947Z,18.26
2018-08-09T04:09:03.916Z,20.95
2018-08-09T04:10:03.869Z,20.76
2018-08-09T04:11:03.838Z,19.42
2018-08-09T04:12:03.832Z,16.24
2018-08-09T04:13:03.763Z,15.57
2018-08-09T04:14:03.736Z,15.00
2018-08-09T04:15:03.704Z,15.09
2018-08-09T04:16:03.659Z,14.42
2018-08-09T04:17:03.624Z,10.09
2018-08-09T04:18:03.596Z,10.96
2018-08-09T04:19:03.561Z,11.63
2018-08-09T04:20:03.526Z,13.75
2018-08-09T04:21:03.495Z,14.23
2018-08-09T04:22:03.458Z,15.95
2018-08-09T04:23:03.425Z,15.95
2018-08-09T04:24:03.392Z,17.40
2018-08-09T04:25:03.358Z,12.21
2018-08-09T04:26:03.331Z,12.49
2018-08-09T04:27:03.294Z,12.21
2018-08-09T04:28:03.261Z,7.98
2018-08-09T04:29:03.230Z,8.75
2018-08-09T04:30:03.193Z,10.00
2018-08-09T04:31:03.159Z,9.52
2018-08-09T04:32:03.126Z,8.65
2018-08-09T04:33:03.097Z,7.11
2018-08-09T04:34:03.060Z,8.07
2018-08-09T04:35:03.028Z,6.24
2018-08-09T04:36:02.995Z,1.44
2018-08-09T04:37:02.963Z,1.06
2018-08-09T04:38:02.988Z,0.00
2018-08-09T04:39:02.902Z,0.00
2018-08-09T04:40:02.868Z,0.00
2018-08-09T04:41:02.836Z,0.00
2018-08-09T04:42:02.846Z,0.00
2018-08-09T04:43:02.778Z,0.00
2018-08-09T04:44:02.734Z,0.48
2018-08-09T04:45:02.702Z,1.73
2018-08-09T04:46:02.684Z,4.71
2018-08-09T04:47:02.644Z,3.46
2018-08-09T04:48:02.601Z,3.85
2018-08-09T04:49:02.571Z,4.32
2018-08-09T04:50:02.545Z,5.57
2018-08-09T04:51:02.510Z,6.05
2018-08-09T04:52:02.473Z,6.92
2018-08-09T04:53:02.446Z,7.98
2018-08-09T04:54:02.410Z,9.03
2018-08-09T04:55:02.376Z,10.38
2018-08-09T04:56:02.342Z,11.24
2018-08-09T04:57:02.311Z,12.88
2018-08-09T04:58:02.289Z,13.07
2018-08-09T04:59:02.247Z,13.37
2018-08-09T05:00:02.214Z,13.46
2018-08-09T05:01:02.184Z,12.88
2018-08-09T05:02:02.160Z,12.21
2018-08-09T05:03:02.114Z,13.75
2018-08-09T05:04:02.094Z,13.46
2018-08-09T05:05:02.054Z,9.04
2018-08-09T05:06:02.015Z,5.00
2018-08-09T05:07:01.984Z,3.65
2018-08-09T05:08:01.952Z,4.71
2018-08-09T05:09:01.920Z,4.71
2018-08-09T05:10:01.890Z,0.09
2018-08-09T05:11:01.857Z,0.00
2018-08-09T05:12:01.824Z,0.00
2018-08-09T05:13:01.796Z,0.00
2018-08-09T05:14:01.755Z,0.00
2018-08-09T05:15:01.725Z,0.00
2018-08-09T05:16:01.777Z,0.00
2018-08-09T05:17:01.658Z,0.00
2018-08-09T05:18:01.632Z,0.00
2018-08-09T05:19:01.599Z,0.00
2018-08-09T05:20:01.562Z,0.00
2018-08-09T05:21:01.531Z,0.00
2018-08-09T05:22:01.502Z,0.00
2018-08-09T05:23:01.479Z,0.00
2018-08-09T05:24:01.459Z,0.00
2018-08-09T05:25:01.418Z,2.01
2018-08-09T05:26:01.367Z,4.61
2018-08-09T05:27:01.338Z,6.05
2018-08-09T05:28:01.304Z,7.01
2018-08-09T05:29:01.269Z,10.00
2018-08-09T05:30:01.242Z,11.25
2018-08-09T05:31:01.209Z,9.32
2018-08-09T05:32:01.176Z,6.05
2018-08-09T05:33:01.145Z,4.61
2018-08-09T05:34:01.116Z,5.00
2018-08-09T05:35:01.077Z,7.01
2018-08-09T05:36:01.046Z,8.55
2018-08-09T05:37:01.015Z,7.21
2018-08-09T05:38:00.976Z,6.82
2018-08-09T05:39:00.955Z,6.34
2018-08-09T05:40:00.919Z,7.21
2018-08-09T05:41:00.882Z,7.01
2018-08-09T05:42:00.860Z,6.24
2018-08-09T05:43:00.820Z,5.86
2018-08-09T05:44:00.788Z,5.00
2018-08-09T05:45:00.764Z,2.88
2018-08-09T05:46:00.719Z,0.77
2018-08-09T05:47:00.690Z,0.19
2018-08-09T05:48:00.658Z,0.00
2018-08-09T05:49:00.622Z,0.00
2018-08-09T05:50:00.598Z,0.00
2018-08-09T05:51:00.563Z,1.15
2018-08-09T05:52:00.527Z,0.86
2018-08-09T05:53:00.506Z,1.82
2018-08-09T05:54:00.466Z,2.59
2018-08-09T05:55:00.433Z,3.75
2018-08-09T05:56:00.402Z,3.94
2018-08-09T05:57:00.371Z,3.55
2018-08-09T05:58:00.343Z,3.85
2018-08-09T05:59:00.304Z,2.78
2018-08-09T06:00:00.270Z,3.56
2018-08-09T06:01:00.235Z,4.33
2018-08-09T06:02:00.215Z,5.57
2018-08-09T06:03:00.176Z,5.77
2018-08-09T06:04:00.143Z,7.11
2018-08-09T06:05:00.113Z,7.69
2018-08-09T06:06:00.074Z,7.89
2018-08-09T06:07:00.078Z,9.71
2018-08-09T06:08:00.017Z,13.65
2018-08-09T06:08:59.985Z,12.88
2018-08-09T06:09:59.949Z,13.65
2018-08-09T06:10:59.916Z,12.79
2018-08-09T06:11:59.883Z,13.09
2018-08-09T06:12:59.849Z,11.93
2018-08-09T06:13:59.823Z,12.60
2018-08-09T06:14:59.788Z,12.51
2018-08-09T06:15:59.756Z,16.06
2018-08-09T06:16:59.732Z,15.11
2018-08-09T06:17:59.690Z,15.49
2018-08-09T06:18:59.672Z,17.32
2018-08-09T06:19:59.627Z,15.78
2018-08-09T06:20:59.595Z,17.03
2018-08-09T06:21:59.566Z,17.03
2018-08-09T06:22:59.533Z,15.68
2018-08-09T06:23:59.502Z,16.36
2018-08-09T06:24:59.468Z,15.39
2018-08-09T06:25:59.439Z,15.88
2018-08-09T06:26:59.409Z,17.52
2018-08-09T06:27:59.376Z,16.65
2018-08-09T06:28:59.346Z,18.87
2018-08-09T06:29:59.309Z,18.96
2018-08-09T06:30:59.276Z,18.68
2018-08-09T06:31:59.249Z,20.70
2018-08-09T06:32:59.211Z,22.34
2018-08-09T06:33:59.185Z,22.73
2018-08-09T06:34:59.151Z,22.73
2018-08-09T06:35:59.121Z,23.50
2018-08-09T06:36:59.090Z,23.79
2018-08-09T06:37:59.052Z,26.29
2018-08-09T06:38:59.024Z,26.48
2018-08-09T06:39:58.992Z,24.66
2018-08-09T06:40:58.964Z,23.40
2018-08-09T06:41:58.925Z,24.19
2018-08-09T06:42:58.896Z,24.48
2018-08-09T06:43:58.864Z,25.34
2018-08-09T06:44:58.828Z,25.34
2018-08-09T06:45:58.805Z,26.59
2018-08-09T06:46:58.773Z,25.81
2018-08-09T06:47:58.740Z,25.54
2018-08-09T06:48:58.710Z,26.50
2018-08-09T06:49:58.673Z,25.54
2018-08-09T06:50:58.644Z,25.44
2018-08-09T06:51:58.615Z,26.79
2018-08-09T06:52:58.579Z,27.17
2018-08-09T06:53:58.552Z,28.42
2018-08-09T06:54:58.523Z,30.83
2018-08-09T06:55:58.487Z,28.52
2018-08-09T06:56:58.459Z,28.42
2018-08-09T06:57:58.429Z,28.83
2018-08-09T06:58:58.396Z,27.19
2018-08-09T06:59:58.363Z,29.69
2018-08-09T07:00:58.336Z,29.41
2018-08-09T07:01:58.298Z,28.44
2018-08-09T07:02:58.270Z,29.98
2018-08-09T07:03:58.241Z,29.69
2018-08-09T07:04:58.238Z,29.02
2018-08-09T07:05:58.179Z,31.25
2018-08-09T07:06:58.190Z,29.22
2018-08-09T07:07:58.113Z,30.96
2018-08-09T07:08:58.088Z,31.54
2018-08-09T07:09:58.048Z,31.06
2018-08-09T07:10:58.022Z,31.06
2018-08-09T07:11:57.998Z,30.48
2018-08-09T07:12:57.965Z,30.48
2018-08-09T07:13:57.931Z,29.80
2018-08-09T07:14:57.897Z,29.61
2018-08-09T07:15:57.864Z,30.96
2018-08-09T07:16:57.832Z,29.22
2018-08-09T07:17:57.807Z,28.74
2018-08-09T07:18:57.776Z,28.84
2018-08-09T07:19:57.746Z,28.84
2018-08-09T07:20:57.719Z,31.35
2018-08-09T07:21:57.678Z,29.52
2018-08-09T07:22:57.650Z,30.29
2018-08-09T07:23:57.621Z,30.77
2018-08-09T07:24:57.589Z,29.13
2018-08-09T07:25:57.562Z,27.20
2018-08-09T07:26:57.529Z,29.05
2018-08-09T07:27:57.496Z,29.72
2018-08-09T07:28:57.469Z,28.85
2018-08-09T07:29:57.438Z,29.14
2018-08-09T07:30:57.408Z,27.40
2018-08-09T07:31:57.375Z,26.44
2018-08-09T07:32:57.344Z,29.64
2018-08-09T07:33:57.313Z,31.67
2018-08-09T07:34:57.281Z,33.70
2018-08-09T07:35:57.251Z,30.80
2018-08-09T07:36:57.241Z,30.32
2018-08-09T07:37:57.195Z,33.29
2018-08-09T07:38:57.163Z,29.83
2018-08-09T07:39:57.130Z,29.72
2018-08-09T07:40:57.103Z,29.93
2018-08-09T07:41:57.065Z,29.25
2018-08-09T07:42:57.038Z,28.58
2018-08-09T07:43:57.008Z,30.22
2018-08-09T07:44:57.020Z,28.39
2018-08-09T07:45:56.944Z,30.72
2018-08-09T07:46:56.916Z,31.20
2018-08-09T07:47:56.898Z,32.46
2018-08-09T07:48:56.855Z,32.56
2018-08-09T07:49:56.830Z,30.72
2018-08-09T07:50:56.807Z,31.49
2018-08-09T07:51:56.768Z,30.91
2018-08-09T07:52:56.741Z,32.94
2018-08-09T07:53:56.706Z,34.39
2018-08-09T07:54:56.675Z,35.06
2018-08-09T07:55:56.645Z,33.25
2018-08-09T07:56:56.623Z,35.47
2018-08-09T07:57:56.596Z,34.99
2018-08-09T07:58:56.561Z,34.99
2018-08-09T07:59:56.525Z,35.66
2018-08-09T08:00:56.529Z,36.53
2018-08-09T08:01:56.471Z,35.47
2018-08-09T08:02:56.438Z,34.21
2018-08-09T08:03:56.407Z,37.02
2018-08-09T08:04:56.379Z,37.71
2018-08-09T08:05:56.346Z,37.42
2018-08-09T08:06:56.317Z,37.42
2018-08-09T08:07:56.286Z,37.13
2018-08-09T08:08:56.255Z,38.20
2018-08-09T08:09:56.233Z,36.94
2018-08-09T08:10:56.200Z,38.48
2018-08-09T08:11:56.169Z,37.13
2018-08-09T08:12:56.142Z,38.78
2018-08-09T08:13:56.107Z,36.26
2018-08-09T08:14:56.096Z,40.42
2018-08-09T08:15:56.071Z,40.25
2018-08-09T08:16:56.024Z,42.37
2018-08-09T08:17:55.987Z,40.63
2018-08-09T08:18:55.961Z,40.44
2018-08-09T08:19:55.932Z,39.37
2018-08-09T08:20:55.901Z,42.18
2018-08-09T08:21:55.875Z,42.08
2018-08-09T08:22:55.864Z,42.57
2018-08-09T08:23:55.814Z,43.44
2018-08-09T08:24:55.786Z,41.41
2018-08-09T08:25:55.751Z,39.45
2018-08-09T08:26:55.724Z,39.45
2018-08-09T08:27:55.694Z,38.12
2018-08-09T08:28:55.665Z,37.04
2018-08-09T08:29:55.645Z,40.15
2018-08-09T08:30:55.612Z,40.83
2018-08-09T08:31:55.576Z,38.89
2018-08-09T08:32:55.546Z,38.79
2018-08-09T08:33:55.523Z,39.57
2018-08-09T08:34:55.492Z,41.11
2018-08-09T08:35:55.461Z,40.53
2018-08-09T08:36:55.436Z,43.55
2018-08-09T08:37:55.401Z,43.65
2018-08-09T08:38:55.373Z,45.78
2018-08-09T08:39:55.344Z,46.66
2018-08-09T08:40:55.315Z,46.84
2018-08-09T08:41:55.362Z,44.81
2018-08-09T08:42:55.258Z,44.53
2018-08-09T08:43:55.229Z,42.30
2018-08-09T08:44:55.202Z,43.85
2018-08-09T08:45:55.166Z,42.86
2018-08-09T08:46:55.140Z,41.99
2018-08-09T08:47:55.118Z,41.99
2018-08-09T08:48:55.084Z,41.89
2018-08-09T08:49:55.051Z,41.31
2018-08-09T08:50:55.023Z,40.53
2018-08-09T08:51:54.993Z,43.24
2018-08-09T08:52:54.980Z,42.57
2018-08-09T08:53:54.939Z,43.15
2018-08-09T08:54:54.908Z,43.34
2018-08-09T08:55:54.877Z,43.82
2018-08-09T08:56:54.856Z,44.21
2018-08-09T08:57:54.817Z,40.63
2018-08-09T08:58:54.795Z,41.99
2018-08-09T08:59:54.776Z,39.28
2018-08-09T09:00:54.761Z,41.60
2018-08-09T09:01:54.705Z,40.92
2018-08-09T09:02:54.674Z,37.05
2018-08-09T09:03:54.642Z,30.66
2018-08-09T09:04:54.633Z,28.44
2018-08-09T09:05:54.591Z,29.99
2018-08-09T09:06:54.609Z,34.25
2018-08-09T09:07:54.529Z,29.12
2018-08-09T09:08:54.501Z,32.23
2018-08-09T09:09:54.466Z,37.65
2018-08-09T09:10:54.443Z,43.29
2018-08-09T09:11:54.409Z,41.35
2018-08-09T09:12:54.379Z,45.22
2018-08-09T09:13:54.358Z,41.06
2018-08-09T09:14:54.325Z,49.10
2018-08-09T09:15:54.296Z,48.13
2018-08-09T09:16:54.268Z,46.87
2018-08-09T09:17:54.234Z,49.39
2018-08-09T09:18:54.207Z,45.51
2018-08-09T09:19:54.178Z,48.83
2018-08-09T09:20:54.156Z,48.71
2018-08-09T09:21:54.121Z,50.45
2018-08-09T09:22:54.093Z,51.52
2018-08-09T09:23:54.062Z,47.36
2018-08-09T09:24:54.032Z,47.06
2018-08-09T09:25:54.008Z,49.49
2018-08-09T09:26:53.998Z,49.39
2018-08-09T09:27:53.948Z,48.90
2018-08-09T09:28:53.923Z,49.00
2018-08-09T09:29:53.886Z,47.09
2018-08-09T09:30:53.860Z,54.55
2018-08-09T09:31:53.831Z,52.32
2018-08-09T09:32:53.800Z,50.67
2018-08-09T09:33:53.778Z,51.47
2018-08-09T09:34:53.748Z,51.96
2018-08-09T09:35:53.716Z,53.31
2018-08-09T09:36:53.685Z,53.99
2018-08-09T09:37:53.664Z,54.48
2018-08-09T09:38:53.636Z,54.28
2018-08-09T09:39:53.608Z,54.96
2018-08-09T09:40:53.578Z,53.51
2018-08-09T09:41:53.546Z,52.15
2018-08-09T09:42:53.514Z,54.11
2018-08-09T09:43:53.486Z,55.47
2018-08-09T09:44:53.454Z,58.39
2018-08-09T09:45:53.434Z,56.64
2018-08-09T09:46:53.411Z,58.67
2018-08-09T09:47:53.373Z,58.48
2018-08-09T09:48:53.347Z,58.19
2018-08-09T09:49:53.312Z,56.54
2018-08-09T09:50:53.286Z,54.90
2018-08-09T09:51:53.258Z,59.48
2018-08-09T09:52:53.236Z,60.19
2018-08-09T09:53:53.198Z,61.07
2018-08-09T09:54:53.220Z,59.70
2018-08-09T09:55:53.150Z,61.16
2018-08-09T09:56:53.115Z,62.42
2018-08-09T09:57:53.090Z,63.10
2018-08-09T09:58:53.060Z,60.77
2018-08-09T09:59:53.033Z,60.55
2018-08-09T10:00:53.010Z,60.00
2018-08-09T10:01:52.983Z,60.00
2018-08-09T10:02:52.945Z,62.04
2018-08-09T10:03:52.921Z,59.31
2018-08-09T10:04:52.888Z,63.04
2018-08-09T10:05:52.865Z,63.65
2018-08-09T10:06:52.836Z,66.31
2018-08-09T10:07:52.806Z,67.28
2018-08-09T10:21:12.712Z,72.02
2018-08-09T10:22:12.632Z,71.04
2018-08-09T10:23:12.603Z,72.11
2018-08-09T10:24:12.571Z,71.92
2018-08-09T10:25:12.548Z,71.92
2018-08-09T10:26:12.514Z,70.65
2018-08-09T10:27:12.482Z,72.17
2018-08-09T10:28:12.451Z,71.88
2018-08-09T10:29:12.418Z,71.69
2018-08-09T10:30:12.386Z,72.08
2018-08-09T10:31:12.357Z,70.72
2018-08-09T10:32:12.331Z,71.69
2018-08-09T10:33:12.307Z,71.69
2018-08-09T10:34:12.278Z,70.91
2018-08-09T10:35:12.248Z,71.59
2018-08-09T10:36:12.216Z,71.40
2018-08-09T10:37:12.192Z,71.88
2018-08-09T10:38:12.163Z,72.47
2018-08-09T10:39:12.138Z,71.40
2018-08-09T10:40:12.110Z,71.59
2018-08-09T10:41:12.076Z,71.88
2018-08-09T10:42:12.045Z,72.08
2018-08-09T10:43:12.018Z,71.11
2018-08-09T10:44:11.992Z,71.59
2018-08-09T10:45:11.969Z,72.08
2018-08-09T10:46:11.948Z,71.59
2018-08-09T10:47:11.914Z,72.08
2018-08-09T10:48:11.882Z,70.72
2018-08-09T10:49:11.851Z,71.69
2018-08-09T10:50:11.824Z,71.50
2018-08-09T10:51:11.801Z,71.59
2018-08-09T10:52:11.787Z,71.40
2018-08-09T10:53:11.740Z,71.78
2018-08-09T10:54:11.712Z,71.59
2018-08-09T10:55:11.686Z,71.62
2018-08-09T10:56:11.657Z,71.69
2018-08-09T10:57:11.636Z,71.82
2018-08-09T10:58:11.607Z,71.72
2018-08-09T10:59:11.584Z,72.15
2018-08-09T11:00:11.553Z,71.76
2018-08-09T11:01:11.522Z,71.76
2018-08-09T11:02:11.491Z,71.76
2018-08-09T11:03:11.466Z,71.95
2018-08-09T11:04:11.463Z,71.76
2018-08-09T11:05:11.415Z,71.56
2018-08-09T11:06:11.387Z,71.37
2018-08-09T11:07:11.381Z,70.98
2018-08-09T11:08:11.333Z,71.08
2018-08-09T11:09:11.306Z,71.11
2018-08-09T11:10:11.280Z,71.41
2018-08-09T11:11:11.255Z,71.11
2018-08-09T11:12:11.226Z,71.41
2018-08-09T11:13:11.194Z,70.62
2018-08-09T11:14:11.165Z,71.41
2018-08-09T11:15:11.138Z,70.62
2018-08-09T11:16:11.112Z,70.98
2018-08-09T11:17:11.089Z,71.27
2018-08-09T11:18:11.065Z,70.98
2018-08-09T11:19:11.034Z,71.56
2018-08-09T11:20:11.008Z,71.53
2018-08-09T11:21:10.978Z,71.23
2018-08-09T11:22:10.947Z,70.95
2018-08-09T11:23:10.926Z,71.62
2018-08-09T11:24:10.900Z,71.62
2018-08-09T11:25:10.868Z,71.33
2018-08-09T11:26:10.841Z,71.43
2018-08-09T11:27:10.811Z,71.69
2018-08-09T11:28:10.788Z,71.59
2018-08-09T11:29:10.761Z,71.59
2018-08-09T11:30:10.739Z,71.69
2018-08-09T11:31:10.713Z,71.30
2018-08-09T11:32:10.683Z,71.59
2018-08-09T11:33:10.651Z,71.30
2018-08-09T11:34:10.623Z,71.20
2018-08-09T11:35:10.598Z,71.88
2018-08-09T11:36:10.569Z,71.50
2018-08-09T11:37:10.544Z,71.59
2018-08-09T11:38:10.518Z,71.30
2018-08-09T11:39:10.494Z,71.20
2018-08-09T11:40:10.460Z,71.30
2018-08-09T11:41:10.436Z,71.30
2018-08-09T11:42:10.408Z,71.56
2018-08-09T11:43:10.391Z,71.36
2018-08-09T11:44:10.359Z,71.46
2018-08-09T11:45:10.332Z,71.26
2018-08-09T11:46:10.293Z,70.87
2018-08-09T11:47:10.268Z,71.46
2018-08-09T11:48:10.242Z,71.46
2018-08-09T11:49:10.219Z,71.26
2018-08-09T11:50:10.197Z,71.36
2018-08-09T11:51:10.161Z,70.65
2018-08-09T11:52:10.138Z,70.58
2018-08-09T11:53:10.103Z,70.84
2018-08-09T11:54:10.111Z,70.55
2018-08-09T11:55:10.052Z,70.06
2018-08-09T11:56:10.033Z,70.45
2018-08-09T11:57:10.047Z,69.90
2018-08-09T11:58:09.962Z,70.16
2018-08-09T11:59:09.934Z,70.16
2018-08-09T12:00:09.913Z,70.06
2018-08-09T12:01:09.883Z,70.06
2018-08-09T12:02:09.857Z,68.99
2018-08-09T12:03:09.837Z,68.80
2018-08-09T12:04:09.800Z,69.58
2018-08-09T12:05:09.771Z,69.09
2018-08-09T12:06:09.745Z,69.09
2018-08-09T12:07:09.767Z,67.34
2018-08-09T12:08:09.705Z,67.05
2018-08-09T12:09:09.665Z,66.86
2018-08-09T12:10:09.640Z,67.15
2018-08-09T12:11:09.606Z,67.34
2018-08-09T12:12:09.582Z,67.93
2018-08-09T12:13:09.562Z,67.54
2018-08-09T12:14:09.524Z,68.90
2018-08-09T12:15:09.523Z,68.22
2018-08-09T12:16:09.467Z,68.99
2018-08-09T12:17:09.437Z,68.51
2018-08-09T12:18:09.409Z,68.32
2018-08-09T12:19:09.380Z,69.09
2018-08-09T12:20:09.355Z,69.48
2018-08-09T12:21:09.328Z,69.19
2018-08-09T12:22:09.301Z,69.67
2018-08-09T12:23:09.274Z,71.13
2018-08-09T12:24:09.245Z,69.48
2018-08-09T12:25:09.218Z,65.89
2018-08-09T12:26:09.185Z,64.72
2018-08-09T12:27:09.162Z,64.14
2018-08-09T12:28:09.137Z,65.37
2018-08-09T12:29:09.105Z,65.08
2018-08-09T12:30:09.072Z,61.68
2018-08-09T12:31:09.044Z,61.35
2018-08-09T12:32:09.023Z,62.32
2018-08-09T12:33:09.021Z,59.70
2018-08-09T12:34:08.967Z,57.76
2018-08-09T12:35:08.939Z,60.64
2018-08-09T12:36:08.909Z,58.39
2018-08-09T12:37:08.881Z,58.58
2018-08-09T12:38:08.849Z,61.00
2018-08-09T12:39:08.821Z,60.88
2018-08-09T12:40:08.795Z,60.39
2018-08-09T12:41:08.773Z,57.39
2018-08-09T12:42:08.742Z,56.61
2018-08-09T12:43:08.709Z,57.39
2018-08-09T12:44:08.684Z,58.62
2018-08-09T12:45:08.685Z,56.87
2018-08-09T12:46:08.629Z,56.77
2018-08-09T12:47:08.600Z,57.17
2018-08-09T12:48:08.571Z,57.75
2018-08-09T12:49:08.543Z,56.29
2018-08-09T12:50:08.509Z,57.17
2018-08-09T12:51:08.481Z,58.23
2018-08-09T12:52:08.455Z,54.55
2018-08-09T12:53:08.429Z,57.07
2018-08-09T12:54:08.401Z,55.81
2018-08-09T12:55:08.373Z,56.97
2018-08-09T12:56:08.342Z,60.62
2018-08-09T12:57:08.312Z,60.91
2018-08-09T12:58:08.283Z,62.27
2018-08-09T12:59:08.262Z,59.20
2018-08-09T13:00:08.310Z,59.84
2018-08-09T13:01:08.199Z,60.85
2018-08-09T13:02:08.168Z,62.01
2018-08-09T13:03:08.142Z,61.82
2018-08-09T13:04:08.111Z,61.69
2018-08-09T13:05:08.099Z,61.91
2018-08-09T13:06:08.057Z,59.27
2018-08-09T13:07:08.032Z,60.27
2018-08-09T13:08:08.001Z,59.39
2018-08-09T13:09:07.967Z,59.39
2018-08-09T13:10:07.938Z,59.97
2018-08-09T13:11:07.958Z,59.78
2018-08-09T13:12:07.881Z,58.81
2018-08-09T13:13:07.866Z,58.33
2018-08-09T13:14:07.827Z,59.97
2018-08-09T13:15:07.791Z,60.65
2018-08-09T13:16:07.768Z,61.01
2018-08-09T13:17:07.738Z,59.75
2018-08-09T13:18:07.711Z,57.81
2018-08-09T13:19:07.685Z,56.94
2018-08-09T13:20:07.653Z,57.23